createdAt,value
2019-05-19T00:00:29.802Z,21.57
2019-05-19T00:03:01.364Z,22.62
2019-05-19T00:05:32.935Z,20.57
2019-05-19T00:08:05.204Z,27.93
2019-05-19T00:10:37.134Z,21.80
2019-05-19T03:25:04.175Z,35.08
2019-05-19T03:57:47.689Z,32.28
2019-05-19T04:00:19.397Z,33.70
2019-05-19T04:02:50.909Z,33.88
2019-05-19T04:05:22.588Z,36.63
2019-05-19T04:07:54.142Z,37.67
2019-05-19T04:10:25.432Z,37.70
2019-05-19T04:12:57.028Z,44.25
2019-05-19T04:15:29.294Z,39.33
2019-05-19T04:18:00.937Z,42.85
2019-05-19T04:20:34.954Z,41.75
2019-05-19T04:23:06.524Z,38.40
2019-05-19T04:25:38.006Z,38.35
2019-05-19T04:28:10.846Z,42.08
2019-05-19T04:30:43.017Z,43.33
2019-05-19T04:33:14.657Z,36.15
2019-05-19T04:35:46.122Z,40.98
2019-05-19T04:42:03.368Z,40.67
2019-05-19T04:53:25.515Z,35.38
2019-05-19T04:55:57.175Z,35.90
2019-05-19T04:58:28.486Z,36.15
2019-05-19T05:01:00.380Z,33.83
2019-05-19T05:03:31.865Z,31.37
2019-05-19T05:06:03.379Z,31.37
2019-05-19T05:08:34.909Z,33.23
2019-05-19T05:11:06.180Z,31.45
2019-05-19T05:13:38.145Z,34.25
2019-05-19T05:16:10.665Z,32.98
2019-05-19T05:18:42.089Z,31.12
2019-05-19T05:21:13.481Z,32.05
2019-05-19T05:23:44.861Z,33.78
2019-05-19T05:26:16.117Z,35.90
2019-05-19T05:28:48.589Z,33.60
2019-05-19T05:31:20.068Z,32.55
2019-05-19T05:33:51.417Z,34.53
2019-05-19T05:36:22.982Z,31.00
2019-05-19T05:38:54.284Z,33.23
2019-05-19T05:41:25.722Z,31.17
2019-05-19T05:43:57.155Z,33.08
2019-05-19T05:46:28.692Z,31.57
2019-05-19T05:49:00.177Z,31.80
2019-05-19T05:51:31.926Z,31.23
2019-05-19T05:54:03.584Z,33.73
2019-05-19T05:56:35.100Z,28.47
2019-05-19T05:59:06.372Z,30.08
2019-05-19T06:01:37.898Z,31.68
2019-05-19T06:04:09.374Z,30.75
2019-05-19T06:06:41.010Z,24.80
2019-05-19T06:09:12.601Z,25.95
2019-05-19T06:11:45.225Z,27.77
2019-05-19T06:14:16.727Z,26.97
2019-05-19T06:16:48.413Z,30.85
2019-05-19T06:19:19.900Z,26.17
2019-05-19T06:21:51.522Z,27.35
2019-05-19T06:24:22.967Z,26.23
2019-05-19T06:26:54.590Z,27.73
2019-05-19T06:29:25.907Z,27.40
2019-05-19T06:32:01.930Z,26.85
2019-05-19T06:34:33.525Z,27.48
2019-05-19T06:37:05.259Z,27.48
2019-05-19T06:39:36.649Z,27.15
2019-05-19T06:42:07.963Z,22.93
2019-05-19T06:44:40.091Z,32.05
2019-05-19T06:47:11.703Z,31.95
2019-05-19T06:49:43.195Z,25.08
2019-05-19T06:52:14.633Z,25.37
2019-05-19T06:54:46.028Z,21.77
2019-05-19T06:57:17.506Z,26.75
2019-05-19T06:59:48.957Z,24.27
2019-05-19T07:02:21.784Z,26.93
2019-05-19T07:04:53.611Z,21.95
2019-05-19T07:07:24.912Z,25.05
2019-05-19T07:09:58.814Z,23.20
2019-05-19T07:12:29.340Z,21.02
2019-05-19T07:15:00.842Z,29.18
2019-05-19T07:17:32.836Z,27.17
2019-05-19T07:20:04.823Z,27.48
2019-05-19T07:22:37.598Z,28.87
2019-05-19T07:25:09.679Z,29.77
2019-05-19T07:27:43.149Z,24.67
2019-05-19T07:30:14.709Z,30.52
2019-05-19T07:32:46.454Z,26.57
2019-05-19T07:35:17.966Z,26.42
2019-05-19T07:37:49.308Z,26.42
2019-05-19T07:40:20.701Z,27.75
2019-05-19T07:42:52.299Z,25.88
2019-05-19T07:45:24.150Z,26.23
2019-05-19T07:47:55.707Z,34.98
2019-05-19T07:50:27.317Z,28.45
2019-05-19T07:52:58.754Z,24.60
2019-05-19T07:55:30.550Z,32.08
2019-05-19T07:58:01.965Z,24.80
2019-05-19T08:00:33.814Z,20.97
2019-05-19T08:03:05.274Z,23.32
2019-05-19T08:05:36.716Z,25.25
2019-05-19T08:08:08.558Z,23.62
2019-05-19T08:10:40.199Z,21.73
2019-05-19T08:13:12.124Z,22.87
2019-05-19T08:15:43.640Z,25.65
2019-05-19T08:18:15.232Z,23.80
2019-05-19T08:20:47.059Z,24.98
2019-05-19T08:23:19.248Z,21.17
2019-05-19T08:25:50.663Z,25.32
2019-05-19T08:28:22.288Z,23.10
2019-05-19T08:30:53.709Z,25.08
2019-05-19T08:33:25.220Z,27.93
2019-05-19T08:35:56.610Z,24.25
2019-05-19T08:38:29.727Z,27.00
2019-05-19T08:41:01.343Z,22.70
2019-05-19T08:43:33.089Z,20.20
2019-05-19T08:46:04.837Z,22.17
2019-05-19T08:48:36.830Z,19.05
2019-05-19T08:51:08.411Z,19.52
2019-05-19T08:53:39.929Z,18.17
2019-05-19T08:56:11.709Z,20.15
2019-05-19T08:58:43.255Z,16.23
2019-05-19T09:01:15.252Z,13.95
2019-05-19T09:03:46.750Z,16.32
2019-05-19T09:06:18.086Z,12.80
2019-05-19T09:08:49.606Z,13.45
2019-05-19T09:11:21.022Z,10.85
2019-05-19T09:13:52.845Z,13.03
2019-05-19T09:16:24.357Z,11.45
2019-05-19T09:19:00.443Z,11.33
2019-05-19T09:21:32.083Z,10.68
2019-05-19T09:24:04.192Z,10.50
2019-05-19T09:26:35.666Z,14.58
2019-05-19T09:29:07.138Z,10.80
2019-05-19T09:31:41.186Z,14.87
2019-05-19T09:34:12.071Z,11.28
2019-05-19T09:36:43.855Z,13.28
2019-05-19T09:39:15.501Z,10.75
2019-05-19T09:41:46.843Z,12.07
2019-05-19T09:44:18.546Z,10.70
2019-05-19T09:46:50.590Z,11.63
2019-05-19T09:49:35.072Z,10.13
2019-05-19T09:52:07.289Z,10.65
2019-05-19T09:54:45.132Z,11.03
2019-05-19T09:57:12.023Z,8.43
2019-05-19T09:59:43.741Z,10.45
2019-05-19T10:02:15.138Z,7.05
2019-05-19T10:04:47.168Z,7.78
2019-05-19T10:07:18.613Z,9.78
2019-05-19T10:09:58.475Z,7.20
2019-05-19T10:12:30.886Z,10.20
2019-05-19T10:15:03.320Z,9.28
2019-05-19T10:17:34.959Z,6.45
2019-05-19T10:20:08.772Z,8.95
2019-05-19T10:22:40.298Z,12.63
2019-05-19T10:25:22.493Z,10.03
2019-05-19T10:27:46.399Z,8.45
2019-05-19T10:30:18.518Z,8.13
2019-05-19T10:32:50.817Z,8.30
2019-05-19T10:35:22.407Z,7.62
2019-05-19T10:37:54.093Z,7.58
2019-05-19T10:40:25.398Z,11.75
2019-05-19T10:42:56.864Z,15.65
2019-05-19T10:45:28.637Z,9.58
2019-05-19T10:47:59.981Z,7.87
2019-05-19T10:50:31.917Z,9.23
2019-05-19T10:53:03.286Z,13.13
2019-05-19T10:55:36.773Z,10.15
2019-05-19T10:58:08.013Z,12.63
2019-05-19T11:00:39.413Z,8.33
2019-05-19T11:03:10.921Z,8.68
2019-05-19T11:05:42.633Z,14.05
2019-05-19T11:08:14.212Z,10.82
2019-05-19T11:10:45.612Z,11.10
2019-05-19T11:13:16.932Z,9.18
2019-05-19T11:15:48.774Z,9.68
2019-05-19T11:18:20.081Z,10.25
2019-05-19T11:20:51.635Z,10.93
2019-05-19T11:23:23.134Z,8.98
2019-05-19T11:25:54.518Z,10.05
2019-05-19T11:28:25.885Z,15.58
2019-05-19T11:30:57.362Z,9.58
2019-05-19T11:33:28.643Z,8.75
2019-05-19T11:36:00.294Z,11.88
2019-05-19T11:38:32.120Z,12.93
2019-05-19T11:41:04.168Z,10.32
2019-05-19T11:43:35.455Z,10.88
2019-05-19T11:46:07.010Z,9.38
2019-05-19T11:48:39.830Z,6.87
2019-05-19T11:51:11.385Z,10.20
2019-05-19T11:53:42.953Z,7.20
2019-05-19T11:56:14.526Z,6.30
2019-05-19T11:58:46.132Z,6.33
2019-05-19T12:01:17.804Z,6.85
2019-05-19T12:03:49.157Z,9.28
2019-05-19T12:06:20.647Z,9.80
2019-05-19T12:08:52.126Z,7.65
2019-05-19T12:11:23.815Z,10.48
2019-05-19T12:13:55.135Z,8.25
2019-05-19T12:16:26.342Z,7.47
2019-05-19T12:18:57.838Z,8.70
2019-05-19T12:21:29.589Z,8.15
2019-05-19T12:24:00.992Z,6.53
2019-05-19T12:26:34.825Z,6.28
2019-05-19T12:29:05.925Z,7.72
2019-05-19T12:46:32.390Z,7.80
2019-05-19T12:49:05.234Z,7.90
2019-05-19T12:51:36.572Z,6.10
2019-05-19T12:54:07.891Z,6.05
2019-05-19T12:56:40.289Z,10.13
2019-05-19T12:59:12.317Z,7.50
2019-05-19T13:01:43.909Z,7.67
2019-05-19T13:04:15.228Z,6.25
2019-05-19T13:06:46.889Z,6.47
2019-05-19T13:09:18.538Z,6.17
2019-05-19T13:11:50.086Z,5.67
2019-05-19T13:14:21.717Z,8.88
2019-05-19T13:16:53.130Z,5.85
2019-05-19T13:19:24.625Z,7.08
2019-05-19T13:21:56.094Z,7.72
2019-05-19T13:24:27.670Z,7.80
2019-05-19T13:26:59.044Z,7.30
2019-05-19T13:29:30.414Z,6.53
2019-05-19T13:32:01.922Z,8.73
2019-05-19T13:34:33.635Z,7.70
2019-05-19T13:37:05.493Z,9.65
2019-05-19T13:39:36.999Z,11.05
2019-05-19T13:42:08.482Z,7.00
2019-05-19T13:44:39.774Z,8.25
2019-05-19T13:47:11.254Z,8.48
2019-05-19T13:49:43.156Z,8.80
2019-05-19T13:52:14.887Z,7.78
2019-05-19T13:54:46.367Z,9.13
2019-05-19T13:57:17.822Z,7.33
2019-05-19T13:59:49.449Z,8.63
2019-05-19T14:02:20.726Z,10.15
2019-05-19T14:04:52.506Z,6.37
2019-05-19T14:07:24.107Z,7.33
2019-05-19T14:09:55.479Z,6.10
2019-05-19T14:12:26.860Z,8.90
2019-05-19T14:14:58.632Z,8.13
2019-05-19T14:17:30.239Z,9.68
2019-05-19T14:20:01.491Z,6.85
2019-05-19T14:22:33.662Z,7.83
2019-05-19T14:25:05.566Z,11.08
2019-05-19T14:27:37.467Z,13.08
2019-05-19T14:30:09.217Z,11.10
2019-05-19T14:32:40.892Z,8.63
2019-05-19T14:43:46.682Z,7.22
2019-05-19T14:46:18.649Z,9.33
2019-05-19T14:48:50.274Z,10.30
2019-05-19T14:51:21.763Z,8.10
2019-05-19T14:53:54.346Z,8.65
2019-05-19T14:56:25.802Z,8.08
2019-05-19T14:58:57.099Z,10.10
2019-05-19T15:01:28.648Z,9.38
2019-05-19T15:04:00.078Z,11.28
2019-05-19T15:06:31.901Z,11.45
2019-05-19T15:09:04.689Z,10.90
2019-05-19T15:11:36.384Z,11.88
2019-05-19T15:14:07.672Z,12.58
2019-05-19T15:16:39.176Z,12.20
2019-05-19T15:19:10.694Z,10.75
2019-05-19T15:21:42.564Z,10.63
2019-05-19T15:24:14.268Z,13.70
2019-05-19T15:26:45.787Z,11.95
2019-05-19T15:29:17.367Z,11.05
2019-05-19T15:31:48.898Z,18.95
2019-05-19T15:34:20.380Z,11.10
2019-05-19T15:36:52.196Z,15.90
2019-05-19T15:39:23.559Z,18.52
2019-05-19T15:41:55.175Z,18.57
2019-05-19T15:44:26.779Z,23.80
2019-05-19T15:46:58.052Z,20.43
2019-05-19T15:49:29.598Z,20.65
2019-05-19T15:52:04.910Z,22.32
2019-05-19T15:54:35.139Z,15.93
2019-05-19T15:57:06.799Z,19.23
2019-05-19T15:59:39.009Z,11.95
2019-05-19T16:02:10.435Z,15.68
2019-05-19T16:04:41.898Z,14.95
2019-05-19T16:07:14.453Z,16.82
2019-05-19T16:09:45.842Z,11.73
2019-05-19T16:12:17.325Z,17.65
2019-05-19T16:14:48.729Z,12.80
2019-05-19T16:17:20.339Z,18.05
2019-05-19T16:19:51.824Z,11.97
2019-05-19T16:22:23.421Z,16.70
2019-05-19T16:24:54.989Z,15.18
2019-05-19T16:27:26.674Z,14.83
2019-05-19T16:29:58.028Z,13.13
2019-05-19T16:32:29.628Z,12.15
2019-05-19T16:35:01.187Z,11.85
2019-05-19T16:37:35.967Z,15.30
2019-05-19T16:40:08.079Z,18.00
2019-05-19T16:42:39.678Z,13.98
2019-05-19T16:45:12.288Z,14.20
2019-05-19T16:47:43.789Z,13.53
2019-05-19T16:50:15.425Z,13.90
2019-05-19T16:52:47.090Z,15.45
2019-05-19T16:55:26.671Z,16.42
2019-05-19T16:57:58.181Z,14.73
2019-05-19T17:00:30.313Z,18.02
2019-05-19T17:03:02.207Z,20.62
2019-05-19T17:05:34.059Z,16.12
2019-05-19T17:08:05.447Z,19.12
2019-05-19T17:10:37.413Z,15.18
2019-05-19T17:16:05.381Z,10.32
2019-05-19T17:18:37.072Z,10.63
2019-05-19T17:21:08.683Z,10.80
2019-05-19T17:23:40.129Z,11.65
2019-05-19T17:26:11.423Z,10.25
2019-05-19T17:28:43.439Z,10.38
2019-05-19T18:15:09.156Z,12.23
2019-05-19T18:17:40.748Z,13.78
2019-05-19T18:20:23.243Z,11.43
2019-05-19T18:47:13.018Z,12.60
2019-05-19T18:49:45.451Z,11.45
2019-05-19T18:52:16.944Z,11.12
2019-05-19T18:54:50.446Z,13.60
2019-05-19T18:57:21.899Z,13.78
2019-05-19T18:59:53.269Z,14.03
2019-05-19T19:02:24.546Z,12.03
2019-05-19T19:04:55.908Z,11.73
2019-05-19T19:07:46.362Z,12.88
2019-05-19T19:10:18.243Z,15.50
2019-05-19T19:12:49.599Z,11.35
2019-05-19T19:15:21.037Z,13.08
2019-05-19T19:17:52.681Z,14.58
2019-05-19T19:20:24.569Z,18.45
2019-05-19T19:22:57.397Z,15.23
2019-05-19T19:25:28.955Z,15.03
2019-05-19T19:28:00.728Z,13.95
2019-05-19T19:30:33.216Z,18.40
2019-05-19T19:33:04.868Z,15.70
2019-05-19T19:35:39.049Z,16.75
2019-05-19T19:38:09.593Z,15.25
2019-05-19T19:40:43.555Z,16.25
2019-05-19T19:43:15.137Z,16.25
2019-05-19T19:45:46.718Z,14.33
2019-05-19T19:48:18.229Z,15.23
2019-05-19T19:50:51.760Z,16.15
2019-05-19T19:53:22.815Z,17.25
2019-05-19T19:55:54.360Z,17.50
2019-05-19T19:58:28.633Z,16.40
2019-05-19T20:01:00.112Z,15.43
2019-05-19T20:03:39.434Z,15.78
2019-05-19T20:06:06.953Z,15.93
2019-05-19T20:08:38.413Z,17.48
2019-05-19T20:11:10.499Z,18.05
2019-05-19T20:13:42.572Z,19.62
2019-05-19T20:16:14.421Z,16.77
2019-05-19T20:18:49.387Z,17.62
2019-05-19T20:21:20.829Z,16.00
2019-05-19T20:23:52.394Z,17.15
2019-05-19T20:26:23.781Z,17.67
2019-05-19T20:28:55.148Z,17.45
2019-05-19T20:31:26.534Z,20.30
2019-05-19T20:33:57.929Z,19.23
2019-05-19T20:36:29.418Z,19.50
2019-05-19T20:39:00.857Z,17.90
2019-05-19T20:41:34.201Z,17.65
2019-05-19T20:44:06.161Z,17.48
2019-05-19T20:46:37.713Z,16.25
2019-05-19T20:49:09.416Z,18.70
2019-05-19T20:51:41.015Z,15.63
2019-05-19T20:54:12.627Z,17.20
2019-05-19T21:06:09.694Z,19.85
2019-05-19T21:08:40.987Z,18.75
2019-05-19T21:11:12.323Z,18.35
2019-05-19T21:13:43.832Z,18.80
2019-05-19T21:16:16.357Z,18.15
2019-05-19T21:19:05.546Z,19.10
2019-05-19T21:21:37.414Z,21.05
2019-05-19T21:24:09.261Z,18.50
2019-05-19T21:26:41.581Z,16.57
2019-05-19T21:29:13.043Z,19.32
2019-05-19T21:31:44.553Z,18.00
2019-05-19T21:34:16.563Z,17.95
2019-05-19T21:36:47.867Z,16.77
2019-05-19T21:39:19.505Z,17.75
2019-05-19T21:41:51.143Z,17.98
2019-05-19T21:44:23.098Z,20.95
2019-05-19T21:46:54.569Z,16.75
2019-05-19T21:49:25.949Z,17.62
2019-05-19T21:51:57.248Z,14.90
2019-05-19T21:54:28.960Z,17.95
2019-05-19T22:00:11.895Z,19.32
2019-05-19T22:02:45.350Z,17.45
2019-05-19T22:05:16.974Z,17.42
2019-05-19T22:08:13.360Z,14.40
2019-05-19T22:10:46.319Z,15.75
2019-05-19T22:13:17.688Z,18.35
2019-05-19T22:15:49.599Z,16.62
2019-05-19T22:18:21.296Z,15.45
2019-05-19T22:20:52.909Z,25.20
2019-05-19T22:23:25.955Z,18.20
2019-05-19T22:25:57.483Z,17.02
2019-05-19T22:28:29.237Z,17.37
2019-05-19T22:31:00.878Z,17.50
2019-05-19T22:33:32.493Z,17.12
2019-05-19T22:36:03.836Z,19.73
2019-05-19T22:38:35.780Z,19.55
2019-05-19T22:41:07.474Z,18.17
2019-05-19T22:43:39.090Z,17.57
2019-05-19T22:46:11.013Z,16.93
2019-05-19T22:48:42.841Z,17.00
2019-05-19T22:51:14.459Z,15.85
2019-05-19T22:53:46.379Z,19.85
2019-05-19T22:56:18.289Z,18.48
2019-05-19T22:58:49.902Z,19.02
2019-05-19T23:01:21.369Z,17.98
2019-05-19T23:03:53.017Z,19.75
2019-05-19T23:06:24.515Z,20.15
2019-05-19T23:08:56.179Z,18.48
2019-05-19T23:11:27.864Z,20.20
2019-05-19T23:13:59.569Z,19.90
2019-05-19T23:16:31.593Z,19.80
2019-05-19T23:19:04.286Z,21.17
2019-05-19T23:21:35.852Z,21.15
2019-05-19T23:24:07.445Z,21.02
2019-05-19T23:26:40.491Z,21.20
2019-05-19T23:29:12.062Z,19.00
2019-05-19T23:31:43.876Z,22.32
2019-05-19T23:34:15.318Z,20.05
2019-05-19T23:36:46.871Z,18.73
2019-05-19T23:39:18.359Z,18.98
2019-05-19T23:41:49.883Z,19.75
2019-05-19T23:44:21.338Z,19.60
2019-05-19T23:46:53.655Z,24.40
2019-05-19T23:49:25.302Z,20.72
2019-05-19T23:51:57.754Z,20.50
2019-05-19T23:54:29.535Z,22.80
2019-05-19T23:57:01.058Z,20.25
2019-05-19T23:59:32.659Z,20.52
